Time;durP1;ratioP1;P1;durP2;ratioP2;P2;SDS_P1;SDS_P2;PMS_P1;PMS_P2;Temp;Humidity;BMP_temperature;BMP_pressure;BME280_temperature;BME280_humidity;BME280_pressure;Samples;Min_cycle;Max_cycle;Signal;HPM_P1;HPM_P2
2022/06/13 00:01:37;;;;;;;1.98;1.30;;;26.80;55.90;;;;;;6338306;22;20003;-85
2022/06/13 00:04:07;;;;;;;2.58;1.70;;;26.80;55.80;;;;;;6339107;22;20371;-86
2022/06/13 00:06:33;;;;;;;1.60;1.40;;;26.80;55.80;;;;;;6309555;22;20064;-84
2022/06/13 00:08:59;;;;;;;1.92;1.50;;;26.80;56.00;;;;;;6338022;22;20052;-86
2022/06/13 00:11:26;;;;;;;1.85;1.48;;;26.80;56.10;;;;;;6337808;22;19999;-87
2022/06/13 00:13:54;;;;;;;2.00;1.30;;;26.70;55.50;;;;;;6338198;22;19990;-85
2022/06/13 00:16:20;;;;;;;1.73;1.10;;;26.70;55.50;;;;;;6338160;22;19995;-82
2022/06/13 00:18:50;;;;;;;1.95;1.55;;;26.70;55.40;;;;;;6337441;22;19999;-82
2022/06/13 00:21:23;;;;;;;1.92;1.30;;;26.80;55.30;;;;;;6337923;22;20021;-87
2022/06/13 00:23:50;;;;;;;1.40;1.20;;;26.70;55.30;;;;;;6338048;22;20124;-86
2022/06/13 00:26:21;;;;;;;1.92;1.25;;;26.70;55.20;;;;;;6337320;22;19995;-87
2022/06/13 00:28:48;;;;;;;1.48;1.38;;;26.80;55.30;;;;;;6336810;22;20002;-83
2022/06/13 00:31:14;;;;;;;2.25;1.63;;;26.80;55.50;;;;;;6336551;22;20053;-84
2022/06/13 00:33:40;;;;;;;1.40;1.30;;;26.70;55.50;;;;;;6338338;22;20405;-85
2022/06/13 00:36:06;;;;;;;2.72;1.42;;;26.70;55.50;;;;;;6337772;22;19999;-85
2022/06/13 00:38:32;;;;;;;2.45;1.58;;;26.70;55.50;;;;;;6337891;22;20006;-86
2022/06/13 00:40:58;;;;;;;3.28;1.60;;;26.70;55.70;;;;;;6337695;22;20014;-85
2022/06/13 00:43:24;;;;;;;2.92;1.25;;;26.70;55.80;;;;;;6340101;22;20010;-85
2022/06/13 00:45:49;;;;;;;2.10;1.38;;;26.70;55.70;;;;;;6340168;22;20363;-87
2022/06/13 00:48:19;;;;;;;2.25;1.55;;;26.70;55.70;;;;;;6340202;22;19999;-85
2022/06/13 00:50:56;;;;;;;2.27;1.30;;;26.60;55.60;;;;;;6339329;22;20003;-86
2022/06/13 00:53:26;;;;;;;1.58;1.23;;;26.60;55.80;;;;;;6312155;22;20355;-85
2022/06/13 00:55:59;;;;;;;2.38;1.50;;;26.60;55.90;;;;;;6311865;22;19999;-83
2022/06/13 00:58:29;;;;;;;5.70;1.77;;;26.60;56.10;;;;;;6339429;22;19995;-84
2022/06/13 01:00:57;;;;;;;2.27;1.40;;;26.60;56.30;;;;;;6340142;22;20081;-84
2022/06/13 01:03:26;;;;;;;2.88;1.75;;;26.60;56.30;;;;;;6340103;22;19999;-84
2022/06/13 01:05:54;;;;;;;2.30;1.50;;;26.60;56.20;;;;;;6339218;22;20064;-86
2022/06/13 01:08:23;;;;;;;1.88;1.35;;;26.50;56.00;;;;;;6312356;22;20010;-87
2022/06/13 01:14:15;;;;;;;1.98;1.40;;;26.50;55.90;;;;;;6340216;22;20467;-84
2022/06/13 01:17:02;;;;;;;1.83;1.30;;;26.50;56.10;;;;;;6338695;22;19999;-84
2022/06/13 01:19:44;;;;;;;1.60;1.50;;;26.50;56.20;;;;;;6339761;22;20425;-83
2022/06/13 01:22:18;;;;;;;1.80;1.50;;;26.50;56.10;;;;;;6339695;22;20002;-84
2022/06/13 01:25:13;;;;;;;3.30;1.48;;;26.50;56.00;;;;;;6339863;22;20032;-83
2022/06/13 01:28:16;;;;;;;2.00;1.60;;;26.50;55.80;;;;;;6339272;22;20013;-84
2022/06/13 01:30:42;;;;;;;2.40;1.73;;;26.50;55.90;;;;;;6310233;22;20007;-84
2022/06/13 01:33:13;;;;;;;2.53;1.60;;;26.50;55.90;;;;;;6338858;22;20302;-84
2022/06/13 01:35:54;;;;;;;2.58;1.70;;;26.50;56.10;;;;;;6338317;22;20053;-84
2022/06/13 01:38:38;;;;;;;1.60;1.50;;;26.50;56.00;;;;;;6339039;22;20482;-83
2022/06/13 01:41:19;;;;;;;2.83;1.60;;;26.50;56.40;;;;;;6338631;22;20022;-83
2022/06/13 01:43:54;;;;;;;3.20;2.00;;;26.40;56.40;;;;;;6338653;22;20010;-83
2022/06/13 01:46:31;;;;;;;2.92;1.65;;;26.40;56.60;;;;;;6338468;22;20003;-83
2022/06/13 01:49:06;;;;;;;2.15;1.67;;;26.40;57.00;;;;;;6338498;22;20002;-83
2022/06/13 01:51:54;;;;;;;2.28;1.58;;;26.40;57.00;;;;;;6338835;22;19998;-84
2022/06/13 01:54:20;;;;;;;2.50;1.67;;;26.40;57.10;;;;;;6338319;22;20001;-83
2022/06/13 01:57:07;;;;;;;3.20;1.80;;;26.40;56.90;;;;;;6339004;22;20022;-83
2022/06/13 01:59:57;;;;;;;2.47;1.75;;;26.40;57.00;;;;;;6338722;22;20332;-83
2022/06/13 02:02:37;;;;;;;3.05;1.63;;;26.40;57.00;;;;;;6340042;22;20043;-84
2022/06/13 02:05:19;;;;;;;3.22;1.50;;;26.40;57.00;;;;;;6339521;22;20003;-84
2022/06/13 02:07:55;;;;;;;4.13;2.08;;;26.30;57.20;;;;;;6312742;22;20337;-84
2022/06/13 02:10:29;;;;;;;1.95;1.60;;;26.30;57.10;;;;;;6340041;22;20014;-84
2022/06/13 02:13:03;;;;;;;2.10;1.73;;;26.30;57.20;;;;;;6340786;22;20022;-84
2022/06/13 02:15:34;;;;;;;2.40;1.67;;;26.30;57.30;;;;;;6311599;22;20029;-84
2022/06/13 02:18:05;;;;;;;3.03;1.70;;;26.30;57.20;;;;;;6338803;22;20002;-84
2022/06/13 02:20:40;;;;;;;2.58;1.70;;;26.30;56.90;;;;;;6338838;22;20009;-85
2022/06/13 02:23:13;;;;;;;2.75;1.73;;;26.30;56.90;;;;;;6338878;22;20077;-84
2022/06/13 02:25:45;;;;;;;2.88;1.63;;;26.30;57.10;;;;;;6338063;22;20002;-84
2022/06/13 02:28:13;;;;;;;3.17;1.90;;;26.20;57.00;;;;;;6338213;22;20085;-84
2022/06/13 02:30:45;;;;;;;4.38;2.05;;;26.20;57.20;;;;;;6310224;22;20009;-83
2022/06/13 02:33:43;;;;;;;2.63;2.08;;;26.20;57.30;;;;;;6338704;22;19999;-84
2022/06/13 02:36:16;;;;;;;4.35;2.83;;;26.20;57.30;;;;;;6338955;22;20002;-85
2022/06/13 02:38:54;;;;;;;6.32;3.08;;;26.20;57.10;;;;;;6338398;22;20619;-85
2022/06/13 02:41:23;;;;;;;5.70;3.65;;;26.20;57.30;;;;;;6338293;22;19998;-84
2022/06/13 02:43:56;;;;;;;6.23;3.40;;;26.20;57.40;;;;;;6338423;22;20003;-84
2022/06/13 02:46:42;;;;;;;8.02;4.15;;;26.20;57.60;;;;;;6311266;22;20052;-85
2022/06/13 02:49:17;;;;;;;4.40;2.70;;;26.00;57.70;;;;;;6339007;22;20328;-85
2022/06/13 02:52:08;;;;;;;5.78;2.60;;;25.90;57.80;;;;;;6338937;22;20013;-85
2022/06/13 02:55:01;;;;;;;2.97;2.35;;;25.80;58.60;;;;;;6338746;22;20022;-84
2022/06/13 02:57:34;;;;;;;3.25;2.53;;;25.70;59.90;;;;;;6333907;22;20073;-85
2022/06/13 03:00:02;;;;;;;5.32;2.80;;;25.50;60.60;;;;;;6338681;22;20371;-85
2022/06/13 03:02:46;;;;;;;4.85;2.38;;;25.30;61.40;;;;;;6311453;22;20470;-85
2022/06/13 03:05:31;;;;;;;3.40;2.35;;;25.20;61.10;;;;;;6338061;22;20078;-87
2022/06/13 03:08:06;;;;;;;6.32;2.53;;;25.20;61.60;;;;;;6338941;22;19999;-87
2022/06/13 03:10:42;;;;;;;4.18;2.50;;;25.20;61.10;;;;;;6338311;22;20002;-87
2022/06/13 03:13:21;;;;;;;3.35;2.40;;;25.30;61.70;;;;;;6339078;22;20014;-87
2022/06/13 03:15:54;;;;;;;2.78;2.33;;;25.20;61.50;;;;;;6310873;22;20343;-85
2022/06/13 03:18:32;;;;;;;3.22;2.65;;;25.30;61.30;;;;;;6338911;22;20030;-86
2022/06/13 03:21:10;;;;;;;3.88;2.80;;;25.30;61.30;;;;;;6338846;22;20003;-87
2022/06/13 03:23:45;;;;;;;4.25;3.03;;;25.30;62.20;;;;;;6338505;22;20502;-86
2022/06/13 03:26:24;;;;;;;3.30;3.00;;;25.30;61.40;;;;;;6338999;22;20413;-87
2022/06/13 03:28:59;;;;;;;3.03;2.72;;;25.30;61.70;;;;;;6338441;22;20007;-88
2022/06/13 03:31:34;;;;;;;4.05;2.75;;;25.30;61.50;;;;;;6338601;22;20019;-87
2022/06/13 03:34:10;;;;;;;3.53;2.72;;;25.30;61.60;;;;;;6338994;22;20002;-87
2022/06/13 03:37:04;;;;;;;2.83;2.60;;;25.30;61.60;;;;;;6338553;22;20040;-84
2022/06/13 03:39:55;;;;;;;3.67;3.05;;;25.30;62.30;;;;;;6338162;22;20516;-84
2022/06/13 03:43:14;;;;;;;4.10;3.70;;;25.30;62.10;;;;;;6338163;22;20003;-85
2022/06/13 03:45:46;;;;;;;3.30;2.92;;;25.20;62.10;;;;;;6313886;22;20060;-85
2022/06/13 03:48:18;;;;;;;4.20;3.75;;;25.20;62.20;;;;;;6338747;22;19998;-85
2022/06/13 03:50:52;;;;;;;6.50;4.70;;;25.20;62.30;;;;;;6338198;22;20003;-86
2022/06/13 03:53:47;;;;;;;6.00;5.13;;;25.20;62.60;;;;;;6337962;22;20077;-84
2022/06/13 03:56:18;;;;;;;7.43;4.53;;;25.20;63.10;;;;;;6299441;22;20006;-83
2022/06/13 03:59:04;;;;;;;9.73;5.50;;;25.10;63.00;;;;;;6311039;22;20003;-83
2022/06/13 04:01:47;;;;;;;5.35;4.85;;;25.10;64.10;;;;;;6338443;22;20004;-82
2022/06/13 04:04:19;;;;;;;5.53;4.95;;;25.10;63.80;;;;;;6309873;22;20339;-82
2022/06/13 04:06:45;;;;;;;6.13;5.53;;;25.10;64.00;;;;;;6337998;22;19995;-82
2022/06/13 04:09:22;;;;;;;6.97;5.45;;;25.00;64.30;;;;;;6337749;22;20006;-82
2022/06/13 04:11:48;;;;;;;7.45;5.53;;;25.00;65.50;;;;;;6338532;22;20011;-82
2022/06/13 04:14:41;;;;;;;6.00;5.40;;;25.00;65.10;;;;;;6338189;22;20034;-83
2022/06/13 04:17:35;;;;;;;7.97;5.30;;;25.00;65.30;;;;;;6337494;22;20002;-83
2022/06/13 04:20:10;;;;;;;5.88;4.45;;;25.00;66.10;;;;;;6338120;22;20003;-84
2022/06/13 04:22:55;;;;;;;6.18;5.68;;;24.90;66.00;;;;;;6338458;22;20056;-85
2022/06/13 04:25:33;;;;;;;7.00;5.03;;;24.90;66.10;;;;;;6337927;22;20009;-85
2022/06/13 04:28:33;;;;;;;5.97;4.90;;;24.90;66.70;;;;;;6337772;22;20030;-85
2022/06/13 04:31:00;;;;;;;5.38;4.88;;;24.90;67.30;;;;;;6315004;22;20014;-83
2022/06/13 04:33:39;;;;;;;6.00;5.38;;;24.90;66.90;;;;;;6310263;22;20002;-84
2022/06/13 04:36:11;;;;;;;6.70;5.70;;;24.90;67.40;;;;;;6337796;22;20002;-82
2022/06/13 04:38:41;;;;;;;6.13;5.53;;;24.90;67.60;;;;;;6337829;22;20064;-83
2022/06/13 04:41:10;;;;;;;5.50;5.00;;;24.90;68.00;;;;;;6335706;22;20071;-85
2022/06/13 04:43:41;;;;;;;5.67;5.10;;;24.90;67.60;;;;;;6310328;22;20006;-85
2022/06/13 04:46:13;;;;;;;5.35;4.85;;;24.90;67.80;;;;;;6337723;22;19999;-86
2022/06/13 04:48:41;;;;;;;6.28;4.97;;;24.90;67.80;;;;;;6338393;22;20414;-86
2022/06/13 04:51:20;;;;;;;5.93;5.30;;;25.00;68.00;;;;;;6337993;22;20405;-86
2022/06/13 04:54:35;;;;;;;7.35;5.90;;;25.00;69.00;;;;;;6336258;22;20011;-86
2022/06/13 04:57:02;;;;;;;12.82;11.52;;;24.90;69.60;;;;;;6327141;22;20530;-84
2022/06/13 04:59:28;;;;;;;12.10;10.80;;;24.80;70.30;;;;;;6337385;22;20003;-84
2022/06/13 05:01:56;;;;;;;7.80;6.80;;;24.50;71.40;;;;;;6336310;22;20007;-84
2022/06/13 05:04:34;;;;;;;13.25;11.68;;;24.50;71.00;;;;;;6337866;22;19999;-82
2022/06/13 05:07:22;;;;;;;11.45;9.90;;;24.50;72.40;;;;;;6308080;22;20128;-83
2022/06/13 05:10:00;;;;;;;8.50;7.70;;;24.30;73.60;;;;;;6335845;22;20103;-82
2022/06/13 05:12:35;;;;;;;6.75;6.13;;;24.20;73.80;;;;;;6337810;22;20133;-82
2022/06/13 05:15:21;;;;;;;9.27;6.55;;;24.30;73.00;;;;;;6338308;22;20041;-83
2022/06/13 05:18:07;;;;;;;7.20;6.10;;;24.40;72.90;;;;;;6336906;22;20068;-83
2022/06/13 05:21:07;;;;;;;7.03;6.32;;;24.50;72.50;;;;;;6308968;22;20060;-84
2022/06/13 05:23:51;;;;;;;7.30;6.22;;;24.70;73.70;;;;;;6337129;22;20003;-85
2022/06/13 05:26:17;;;;;;;6.85;6.22;;;24.70;73.50;;;;;;6337548;22;20003;-85
2022/06/13 05:28:43;;;;;;;6.07;5.50;;;24.60;73.80;;;;;;6336468;22;20402;-84
2022/06/13 05:31:16;;;;;;;6.88;6.18;;;24.70;73.30;;;;;;6334869;22;19999;-83
2022/06/13 05:33:43;;;;;;;7.95;6.60;;;24.70;73.60;;;;;;6336769;22;19995;-83
2022/06/13 05:36:15;;;;;;;6.30;5.80;;;24.70;73.90;;;;;;6336624;22;20010;-83
2022/06/13 05:38:48;;;;;;;10.02;8.77;;;24.80;74.00;;;;;;6335831;22;19994;-85
2022/06/13 05:41:15;;;;;;;8.93;8.13;;;24.90;75.90;;;;;;6338832;22;20022;-89
2022/06/13 05:43:41;;;;;;;7.20;6.50;;;24.90;75.30;;;;;;6339921;22;20002;-89
2022/06/13 05:46:12;;;;;;;8.57;7.75;;;25.00;74.70;;;;;;6339901;22;19999;-87
2022/06/13 05:48:38;;;;;;;9.93;8.88;;;25.10;75.80;;;;;;6339312;22;20010;-86
2022/06/13 05:51:04;;;;;;;9.93;9.02;;;25.10;76.80;;;;;;6339204;22;19999;-86
2022/06/13 05:53:29;;;;;;;9.55;8.63;;;25.10;76.50;;;;;;6311843;22;20002;-84
2022/06/13 05:56:01;;;;;;;10.45;9.45;;;25.10;76.40;;;;;;6338984;22;20006;-87
2022/06/13 05:58:27;;;;;;;10.85;9.85;;;25.20;77.60;;;;;;6338855;22;19998;-88
2022/06/13 06:01:00;;;;;;;8.77;7.97;;;25.20;77.30;;;;;;6339519;22;20007;-86
2022/06/13 06:03:27;;;;;;;10.68;9.65;;;25.30;76.30;;;;;;6338565;22;20385;-87
2022/06/13 06:06:03;;;;;;;8.43;7.63;;;25.30;76.70;;;;;;6338515;22;20003;-87
2022/06/13 06:08:32;;;;;;;10.00;8.55;;;25.40;77.30;;;;;;6338944;22;19998;-89
2022/06/13 06:10:58;;;;;;;9.23;8.23;;;25.40;78.30;;;;;;6338400;22;20438;-89
2022/06/13 06:13:26;;;;;;;8.93;8.02;;;25.50;77.90;;;;;;6337954;22;20034;-86
2022/06/13 06:15:52;;;;;;;6.53;5.88;;;25.60;79.00;;;;;;6339627;22;19999;-84
2022/06/13 06:18:20;;;;;;;6.22;5.63;;;25.60;78.10;;;;;;6337905;22;20135;-85
2022/06/13 06:20:45;;;;;;;6.25;5.72;;;25.70;78.20;;;;;;6337019;22;20030;-83
2022/06/13 06:23:15;;;;;;;7.60;6.82;;;25.80;78.50;;;;;;6338793;22;20472;-83
2022/06/13 06:25:42;;;;;;;7.57;5.00;;;25.90;79.40;;;;;;6339171;22;20074;-84
2022/06/13 06:28:09;;;;;;;6.55;5.70;;;25.90;78.50;;;;;;6311394;22;20007;-83
2022/06/13 06:30:35;;;;;;;7.05;5.57;;;26.00;79.50;;;;;;6338051;22;20006;-84
2022/06/13 06:33:01;;;;;;;5.13;4.47;;;26.00;79.80;;;;;;6339051;22;20165;-84
2022/06/13 06:35:29;;;;;;;4.72;4.15;;;26.10;79.20;;;;;;6291556;22;20094;-82
2022/06/13 06:37:55;;;;;;;5.50;4.78;;;26.20;80.00;;;;;;6335240;22;20007;-82
2022/06/13 06:40:24;;;;;;;6.47;4.60;;;26.20;79.80;;;;;;6336434;22;19998;-82
2022/06/13 06:43:05;;;;;;;5.78;5.20;;;26.20;79.30;;;;;;6304942;22;20003;-82
2022/06/13 06:45:32;;;;;;;4.38;3.97;;;26.20;79.80;;;;;;6292776;22;20063;-82
2022/06/13 06:47:58;;;;;;;5.63;4.65;;;26.30;79.40;;;;;;6309418;22;20006;-82
2022/06/13 06:50:26;;;;;;;5.13;4.63;;;26.30;79.90;;;;;;6337959;22;20089;-82
2022/06/13 06:52:57;;;;;;;4.25;3.95;;;26.30;79.20;;;;;;6338978;22;19999;-82
2022/06/13 07:01:33;;;;;;;9.00;7.90;;;26.40;78.30;;;;;;6338032;22;20467;-85
2022/06/13 07:04:30;;;;;;;4.90;4.40;;;26.30;77.40;;;;;;6307318;22;20306;-83
2022/06/13 07:06:59;;;;;;;4.75;3.67;;;26.40;77.80;;;;;;6310126;22;20010;-83
2022/06/13 07:09:25;;;;;;;3.88;3.58;;;26.40;77.80;;;;;;6336747;22;20007;-83
2022/06/13 07:12:03;;;;;;;5.07;4.57;;;26.40;77.00;;;;;;6335834;22;20341;-84
2022/06/13 07:14:44;;;;;;;5.88;5.05;;;26.40;77.00;;;;;;6307722;22;20053;-83
2022/06/13 07:17:26;;;;;;;4.33;3.83;;;26.40;77.00;;;;;;6309594;22;20006;-84
2022/06/13 07:20:02;;;;;;;5.28;4.70;;;26.40;77.00;;;;;;6310493;22;20013;-83
2022/06/13 07:22:30;;;;;;;4.25;3.85;;;26.40;77.90;;;;;;6309865;22;20333;-85
2022/06/13 07:25:17;;;;;;;5.20;3.97;;;26.40;77.60;;;;;;6337813;22;20011;-84
2022/06/13 07:27:58;;;;;;;4.22;3.83;;;26.40;77.90;;;;;;6310021;22;20368;-84
2022/06/13 07:30:39;;;;;;;4.85;4.20;;;26.50;77.70;;;;;;6309252;22;20003;-82
2022/06/13 07:33:07;;;;;;;3.97;3.50;;;26.50;77.60;;;;;;6310445;22;20332;-85
2022/06/13 07:35:33;;;;;;;6.20;4.53;;;26.50;77.90;;;;;;6337758;22;20006;-84
2022/06/13 07:38:18;;;;;;;5.22;4.70;;;26.50;78.50;;;;;;6338302;22;20069;-83
2022/06/13 07:41:05;;;;;;;5.53;3.80;;;26.50;78.10;;;;;;6337912;22;20086;-83
2022/06/13 07:43:35;;;;;;;3.70;3.30;;;26.50;78.00;;;;;;6309976;22;20052;-85
2022/06/13 07:46:04;;;;;;;7.73;5.77;;;26.50;78.00;;;;;;6337627;22;20030;-84
2022/06/13 07:48:31;;;;;;;7.20;5.22;;;26.50;78.60;;;;;;6337397;22;20424;-84
2022/06/13 07:51:07;;;;;;;3.67;3.33;;;26.50;79.30;;;;;;6337436;22;20082;-84
2022/06/13 07:53:33;;;;;;;13.88;5.22;;;26.60;78.20;;;;;;6338416;22;20324;-84
2022/06/13 07:55:59;;;;;;;4.35;3.95;;;26.50;79.20;;;;;;6337540;22;20022;-84
2022/06/13 07:58:36;;;;;;;3.38;3.03;;;26.50;79.00;;;;;;6337104;22;20436;-85
2022/06/13 08:01:02;;;;;;;4.78;4.10;;;26.60;78.60;;;;;;6337596;22;19995;-84
2022/06/13 08:03:31;;;;;;;6.65;6.03;;;26.60;79.20;;;;;;6337773;22;20057;-84
2022/06/13 08:05:57;;;;;;;5.40;3.97;;;26.50;79.80;;;;;;6336869;22;20451;-86
2022/06/13 08:08:23;;;;;;;6.50;5.38;;;26.50;79.40;;;;;;6336117;22;20007;-86
2022/06/13 08:11:12;;;;;;;3.75;3.30;;;26.50;80.00;;;;;;6313154;22;20014;-87
2022/06/13 08:14:27;;;;;;;4.45;3.47;;;26.60;79.30;;;;;;6303537;22;20015;-84
2022/06/13 08:16:55;;;;;;;3.72;3.30;;;26.80;79.60;;;;;;6303124;22;20007;-84
2022/06/13 08:19:21;;;;;;;3.92;3.47;;;27.00;78.90;;;;;;6307391;22;20056;-84
2022/06/13 08:21:49;;;;;;;4.43;3.85;;;27.10;78.40;;;;;;6306946;22;20042;-85
2022/06/13 08:24:16;;;;;;;5.50;5.00;;;27.10;77.40;;;;;;6307059;22;20003;-83
2022/06/13 08:26:42;;;;;;;3.17;2.85;;;27.00;75.90;;;;;;6306099;22;20007;-84
2022/06/13 08:29:08;;;;;;;3.03;2.72;;;27.00;76.30;;;;;;6304533;22;20493;-84
2022/06/13 08:31:35;;;;;;;7.70;4.93;;;27.10;75.90;;;;;;6306520;22;20074;-85
2022/06/13 08:34:01;;;;;;;3.05;2.72;;;27.10;75.10;;;;;;6306036;22;20515;-84
2022/06/13 08:36:26;;;;;;;5.30;4.80;;;27.20;75.20;;;;;;6306701;22;20074;-84
2022/06/13 08:38:52;;;;;;;3.70;2.83;;;27.30;74.80;;;;;;6306550;22;19999;-84
2022/06/13 08:41:29;;;;;;;4.47;3.00;;;27.40;74.80;;;;;;6304308;22;20003;-85
2022/06/13 08:44:32;;;;;;;3.88;3.53;;;27.40;75.10;;;;;;6305368;22;20382;-84
2022/06/13 08:47:31;;;;;;;7.05;5.38;;;27.60;75.00;;;;;;6305982;22;20010;-85
2022/06/13 08:50:15;;;;;;;4.32;3.70;;;27.60;74.50;;;;;;6307102;22;20003;-84
2022/06/13 08:52:55;;;;;;;7.05;6.32;;;27.60;74.50;;;;;;6306794;22;19999;-84
2022/06/13 08:55:47;;;;;;;3.40;3.10;;;27.60;73.40;;;;;;6306705;22;20473;-85
2022/06/13 08:58:34;;;;;;;5.25;3.80;;;27.70;73.80;;;;;;6306669;22;20022;-85
2022/06/13 09:01:06;;;;;;;6.07;4.38;;;27.80;73.30;;;;;;6304442;22;20011;-85
2022/06/13 09:03:40;;;;;;;3.80;3.40;;;27.90;72.40;;;;;;6297981;22;20003;-83
2022/06/13 09:06:29;;;;;;;5.32;4.72;;;28.00;72.40;;;;;;6305215;22;20083;-87
2022/06/13 09:09:01;;;;;;;4.57;2.97;;;28.00;71.70;;;;;;6306646;22;20006;-85
2022/06/13 09:11:26;;;;;;;4.88;4.22;;;28.10;72.00;;;;;;6308035;22;20372;-86
2022/06/13 09:14:04;;;;;;;3.47;2.83;;;28.20;71.10;;;;;;6337670;22;20007;-85
2022/06/13 09:16:33;;;;;;;3.88;3.33;;;28.30;71.60;;;;;;6334522;22;20090;-84
2022/06/13 09:19:11;;;;;;;4.90;4.45;;;28.40;72.20;;;;;;6337279;22;20002;-82
2022/06/13 09:22:11;;;;;;;8.05;7.35;;;28.50;72.70;;;;;;6339625;22;20040;-84
2022/06/13 09:24:41;;;;;;;;;;;28.60;71.80;;;;;;6341547;22;20005;-83
2022/06/13 09:27:30;;;;;;;7.50;5.28;;;28.60;72.70;;;;;;6316021;22;19902;-84
2022/06/13 09:30:09;;;;;;;10.87;8.47;;;28.70;71.90;;;;;;6344803;22;20014;-85
2022/06/13 09:32:38;;;;;;;7.95;4.35;;;28.70;66.70;;;;;;6342596;22;19999;-86
2022/06/13 09:35:23;;;;;;;4.97;4.45;;;28.70;69.10;;;;;;6343933;22;19995;-85
2022/06/13 09:37:55;;;;;;;8.32;7.07;;;28.60;66.40;;;;;;6343695;22;19998;-84
2022/06/13 09:40:40;;;;;;;6.53;5.22;;;28.60;65.20;;;;;;6343299;22;20003;-84
2022/06/13 09:43:37;;;;;;;6.32;4.00;;;28.70;65.00;;;;;;6340702;22;20007;-85
2022/06/13 09:46:30;;;;;;;2.35;1.85;;;28.70;65.10;;;;;;6340395;22;20005;-85
2022/06/13 09:49:20;;;;;;;4.43;3.63;;;28.90;66.50;;;;;;6340143;22;20328;-85
2022/06/13 09:51:51;;;;;;;;;;;29.00;67.10;;;;;;6341964;22;20006;-85
2022/06/13 09:54:34;;;;;;;4.30;3.47;;;29.10;66.10;;;;;;6339334;22;19926;-85
2022/06/13 09:57:22;;;;;;;4.53;4.13;;;29.20;67.80;;;;;;6311678;22;20006;-84
2022/06/13 10:00:05;;;;;;;7.05;5.93;;;29.30;67.60;;;;;;6338656;22;20026;-84
2022/06/13 10:02:58;;;;;;;4.63;3.55;;;29.30;66.90;;;;;;6340381;22;20011;-85
2022/06/13 10:05:39;;;;;;;5.45;4.05;;;29.50;66.90;;;;;;6339653;22;20074;-84
2022/06/13 10:08:36;;;;;;;7.60;5.75;;;29.50;66.40;;;;;;6312368;22;20089;-85
2022/06/13 10:11:17;;;;;;;5.88;4.65;;;29.50;65.00;;;;;;6339703;22;20400;-80
2022/06/13 10:14:20;;;;;;;14.25;10.35;;;29.60;65.80;;;;;;6339684;22;20018;-82
2022/06/13 10:16:52;;;;;;;6.18;3.67;;;29.50;64.10;;;;;;6338874;22;19999;-80
2022/06/13 10:19:37;;;;;;;2.83;2.58;;;29.50;64.70;;;;;;6308188;22;20011;-84
2022/06/13 10:22:14;;;;;;;3.33;2.33;;;29.70;65.00;;;;;;6338732;22;20006;-82
2022/06/13 10:24:54;;;;;;;3.20;2.80;;;29.80;64.50;;;;;;6311473;22;20002;-84
2022/06/13 10:27:20;;;;;;;;;;;30.00;63.70;;;;;;6338425;22;19995;-82
2022/06/13 10:30:19;;;;;;;3.83;3.50;;;30.20;62.70;;;;;;6337135;22;19913;-82
2022/06/13 10:32:50;;;;;;;3.67;2.92;;;30.30;62.10;;;;;;6338143;22;19995;-82
2022/06/13 10:35:18;;;;;;;2.17;1.50;;;30.40;60.90;;;;;;6309737;22;20310;-81
2022/06/13 10:38:02;;;;;;;2.90;1.77;;;30.50;60.80;;;;;;6336988;22;19994;-83
2022/06/13 10:40:28;;;;;;;1.83;1.33;;;30.60;53.80;;;;;;6336444;22;20032;-83
2022/06/13 10:42:55;;;;;;;2.67;2.10;;;30.70;57.60;;;;;;6305872;22;20007;-82
2022/06/13 10:45:23;;;;;;;2.85;2.13;;;30.80;57.60;;;;;;6336042;22;20601;-81
2022/06/13 10:48:11;;;;;;;4.55;2.15;;;30.90;57.10;;;;;;6336551;22;19999;-83
2022/06/13 10:50:51;;;;;;;3.25;2.70;;;31.10;57.30;;;;;;6336829;22;20416;-82
2022/06/13 10:53:38;;;;;;;5.40;4.63;;;31.20;58.20;;;;;;6337627;22;20014;-81
2022/06/13 10:56:09;;;;;;;10.48;7.85;;;31.20;56.30;;;;;;6337895;22;19995;-81
2022/06/13 10:58:49;;;;;;;2.72;2.45;;;31.10;57.20;;;;;;6337436;22;20075;-80
2022/06/13 11:01:17;;;;;;;5.40;4.85;;;31.20;58.90;;;;;;6336798;22;20052;-81
2022/06/13 11:04:02;;;;;;;7.38;3.50;;;31.40;58.50;;;;;;6336465;22;20397;-81
2022/06/13 11:06:41;;;;;;;2.75;2.55;;;31.60;58.10;;;;;;6337152;22;20350;-80
2022/06/13 11:09:35;;;;;;;2.30;1.80;;;31.70;57.00;;;;;;6335305;22;20007;-82
2022/06/13 11:12:05;;;;;;;8.30;4.70;;;31.80;56.40;;;;;;6336285;22;20444;-81
2022/06/13 11:22:37;;;;;;;2.53;2.00;;;31.90;57.10;;;;;;6335895;22;20045;-81
2022/06/13 11:23:06;;;;;;;4.72;2.47;;;32.50;56.60;;;;;;6338714;22;20523;-82
2022/06/13 11:25:34;;;;;;;4.70;3.20;;;32.60;56.00;;;;;;6338079;22;20034;-82
2022/06/13 11:28:06;;;;;;;6.40;2.75;;;32.80;54.90;;;;;;6338084;22;20003;-82
2022/06/13 11:30:49;;;;;;;5.55;2.13;;;33.20;54.80;;;;;;6337310;22;20003;-80
2022/06/13 11:33:29;;;;;;;3.88;1.90;;;33.60;55.70;;;;;;6338585;22;20010;-82
2022/06/13 11:35:56;;;;;;;3.22;2.20;;;34.10;53.60;;;;;;6337348;22;20044;-82
2022/06/13 11:38:32;;;;;;;3.63;1.90;;;34.50;52.70;;;;;;6337219;22;19999;-83
2022/06/13 11:41:23;;;;;;;2.50;1.67;;;34.80;51.50;;;;;;6337559;22;20077;-82
2022/06/13 11:44:14;;;;;;;5.45;2.40;;;35.20;50.60;;;;;;6323300;22;20041;-82
2022/06/13 11:46:52;;;;;;;3.83;1.58;;;35.50;50.10;;;;;;6308202;22;20007;-82
2022/06/13 11:49:18;;;;;;;1.58;1.45;;;35.80;49.60;;;;;;6309513;22;20527;-83
2022/06/13 11:52:08;;;;;;;1.45;1.35;;;36.00;48.50;;;;;;6337782;22;20026;-83
2022/06/13 11:54:54;;;;;;;3.25;1.95;;;36.30;48.30;;;;;;6336868;22;19999;-82
2022/06/13 11:57:39;;;;;;;2.08;1.50;;;36.30;47.20;;;;;;6309216;22;20030;-81
2022/06/13 12:00:17;;;;;;;2.15;1.27;;;36.50;45.40;;;;;;6309215;22;20433;-83
2022/06/13 12:02:51;;;;;;;2.08;1.45;;;36.40;45.80;;;;;;6310176;22;20089;-82
2022/06/13 12:05:39;;;;;;;4.43;2.00;;;36.50;45.80;;;;;;6335697;22;20037;-82
2022/06/13 12:08:14;;;;;;;4.47;2.28;;;36.50;44.10;;;;;;6310035;22;20010;-82
2022/06/13 12:10:41;;;;;;;4.25;2.78;;;36.50;45.60;;;;;;6337614;22;20003;-83
2022/06/13 12:13:16;;;;;;;3.22;2.50;;;36.50;43.70;;;;;;6339206;22;20014;-82
2022/06/13 12:16:05;;;;;;;4.70;2.35;;;36.30;40.30;;;;;;6341501;22;19999;-82
2022/06/13 12:19:01;;;;;;;3.73;1.80;;;36.20;41.40;;;;;;6312609;22;20078;-83
2022/06/13 12:21:57;;;;;;;3.90;2.00;;;35.60;41.00;;;;;;6334641;22;20006;-84
2022/06/13 12:24:32;;;;;;;2.88;1.80;;;35.60;41.00;;;;;;6337808;22;20003;-83
2022/06/13 12:27:24;;;;;;;1.95;1.52;;;35.60;42.00;;;;;;6306328;22;20056;-82
2022/06/13 12:30:06;;;;;;;2.25;1.67;;;35.60;40.00;;;;;;6334579;22;20096;-82
2022/06/13 12:32:59;;;;;;;2.67;1.50;;;35.50;40.00;;;;;;6308688;22;20003;-85
2022/06/13 12:36:01;;;;;;;2.08;1.48;;;35.30;39.30;;;;;;6302982;22;20410;-80
2022/06/13 12:38:59;;;;;;;1.25;1.10;;;35.20;40.30;;;;;;6289292;22;20002;-82
2022/06/13 12:41:43;;;;;;;1.27;1.00;;;35.10;39.60;;;;;;6338078;22;20190;-81
2022/06/13 12:44:27;;;;;;;1.25;1.02;;;34.90;38.80;;;;;;6336314;22;20025;-81
2022/06/13 12:46:56;;;;;;;1.02;0.90;;;34.70;39.90;;;;;;6310879;22;20051;-81
2022/06/13 12:49:33;;;;;;;1.20;1.10;;;34.50;39.30;;;;;;6338638;22;20022;-81
2022/06/13 12:52:18;;;;;;;2.40;1.20;;;34.30;39.00;;;;;;6336626;22;20037;-80
2022/06/13 12:55:00;;;;;;;1.33;1.10;;;34.20;39.40;;;;;;6310279;22;20003;-80
2022/06/13 12:57:46;;;;;;;2.53;1.15;;;34.20;39.60;;;;;;6311273;22;20565;-80
2022/06/13 13:00:41;;;;;;;2.72;1.25;;;34.30;40.20;;;;;;6310444;22;20278;-81
2022/06/13 13:03:31;;;;;;;2.20;1.10;;;34.20;40.50;;;;;;6337913;22;20113;-81
2022/06/13 13:06:03;;;;;;;2.22;1.10;;;34.20;40.70;;;;;;6339548;22;20009;-82
2022/06/13 13:08:46;;;;;;;1.45;1.02;;;34.20;40.00;;;;;;6338363;22;20325;-82
2022/06/13 13:11:36;;;;;;;2.55;1.13;;;34.10;39.60;;;;;;6335185;22;20002;-80
2022/06/13 13:14:08;;;;;;;1.35;1.25;;;34.00;40.10;;;;;;6338028;22;20014;-82
2022/06/13 13:16:52;;;;;;;1.35;1.00;;;34.00;40.50;;;;;;6339647;22;19995;-81
2022/06/13 13:19:24;;;;;;;1.60;1.10;;;34.00;40.40;;;;;;6310987;22;20090;-82
2022/06/13 13:22:05;;;;;;;2.47;1.30;;;34.00;40.80;;;;;;6339254;22;20074;-81
2022/06/13 13:24:34;;;;;;;1.75;1.20;;;34.10;40.60;;;;;;6311823;22;20324;-82
2022/06/13 13:27:04;;;;;;;2.05;1.27;;;34.20;41.00;;;;;;6311709;22;20003;-82
2022/06/13 13:29:54;;;;;;;1.42;1.33;;;34.30;40.30;;;;;;6339272;22;20010;-83
2022/06/13 13:32:31;;;;;;;2.83;1.40;;;34.40;39.50;;;;;;6339033;22;20109;-83
2022/06/13 13:35:09;;;;;;;1.50;1.02;;;34.60;39.80;;;;;;6339222;22;19999;-83
2022/06/13 13:37:39;;;;;;;1.85;1.17;;;34.80;39.50;;;;;;6338825;22;20048;-83
2022/06/13 13:40:24;;;;;;;1.85;0.90;;;34.90;39.40;;;;;;6312083;22;20091;-83
2022/06/13 13:43:07;;;;;;;1.08;0.98;;;35.10;37.80;;;;;;6339238;22;20086;-83
2022/06/13 13:45:39;;;;;;;2.15;1.30;;;35.20;37.50;;;;;;6338579;22;19998;-83
2022/06/13 13:48:29;;;;;;;3.95;1.50;;;35.20;38.30;;;;;;6311192;22;20306;-83
2022/06/13 13:51:09;;;;;;;3.60;1.50;;;35.10;37.80;;;;;;6338004;22;20074;-83
2022/06/13 13:54:03;;;;;;;1.88;1.52;;;35.10;37.50;;;;;;6338628;22;20002;-83